Главная страница
METAR-TAF:

METAR-TAF

Аэропорты :

Дамаск, Сирия

широта: 33-25N, долгота: 036-31E, высота над уровнем моря: 608 м

Текущие метеонаблюдения

Эта сводка был подготовлена 39 минут назад, в 03:00 UTC
Ветер 12 Узел от южный-юго-западный
Температура 20°C
Влажность 83%
Давление 1008 hPa
Видимость 10 км и более
Нет облачности ниже 1500 м, и нет кучево-дождевой облачности

METAR: OSDI 150300Z 20012KT CAVOK 20/17 Q1008

Время: 06:39 (03:39 UTC)

Прогноз

Эта сводка был подготовлена 6 часа и 9 минут назад, в 21:30 UTC
Прогноз действительный с 15-го 00 UTC до 16-го 05 UTC
Ветер 10 Узел от юго-западный
Видимость 10 км и более
Нет облачности ниже 1500 м, и нет кучево-дождевой облачности
временами
С 15-го 12 UTC до 15-го 18 UTC
Ветер 6 Узел от западный-юго-западный
Видимость 10 км и более
небольшая облачность на высоте 3000 фута
небольшая облачность на высоте 2600 фута
Отдельные облака на высоте 3000 фута
небольшая облачность на высоте 2600 фута
Отдельные облака на высоте 3000 фута

TAF: OSDI 142130Z 1500/1605 22010KT CAVOK TEMPO 1512/1518 250G25KT 9999 FEW030 OSLK 142130Z 1500/1524 13006KT 9999 FEW026 SCT030 TEEMPO 1506/1515 25006KT 9999 FEW026 SCT030

Метеонаблюдения и прогнозы для более 4000 аэропортов (сводки METAR и TAF).

Имеющиеся станции представлены на карте желтыми и красными точками.

Чтобы увидеть название станции, наведите на нее мышь.

Затем щелкните, чтобы увидеть метеонаблюдения и метеопрогнозы.

Управление картой: чтобы увеличить масштаб, щелкните зеленые кнопки с черным крестиком; чтобы уменьшить масштаб, щелкните зеленую кнопку с тире; для просмотра соседних карт щелкайте зеленые стрелки.


METAR-TAF: